Constableville, NY (13325)

7:56 PM EDT on August 28, 2016 (GMT -0400)
KENTNER RD., TUGHILL PLATEAU | | Change Station

Elev 1253 ft 43.59 °N, 75.38 °W | Updated 16 seconds ago

Overcast
Overcast
76.3 °F
Feels Like 78 °F
N
4.2
Wind Variable Wind from WSW
Gusts 6.0 mph

Today
High -- | Low -- °F
--% Chance of Precip.
Yesterday
High -- | Low -- °F
Precip. -- in
Pressure 30.10 in
Visibility 10.0 miles
Clouds Mostly Cloudy 3800 ft
Mostly Cloudy 4400 ft
Mostly Cloudy 11000 ft
Heat Index 78 °F
Dew Point 69 °F
Humidity 79%
Rainfall 0.00 in
Snow Depth Not available.
6:22 AM 7:43 PM
Waning Crescent, 12% visible
METAR KRME 282353Z 00000KT 10SM VCTS -RA BKN038 BKN044 BKN110 24/21 A3011 RMK AO2 LTG DSNT SE AND SW RAB50 SLP192 P0000 60023 T02390211 10306 20239 52004
Pressure 30.10 in
Visibility 10.0 miles
Clouds Mostly Cloudy 3800 ft
Mostly Cloudy 4400 ft
Mostly Cloudy 11000 ft
Heat Index 78 °F
Dew Point 69 °F
Humidity 79%
Rainfall 0.00 in
Snow Depth Not available.
6:22 AM 7:43 PM
Waning Crescent, 12% visible
METAR KRME 282353Z 00000KT 10SM VCTS -RA BKN038 BKN044 BKN110 24/21 A3011 RMK AO2 LTG DSNT SE AND SW RAB50 SLP192 P0000 60023 T02390211 10306 20239 52004

10-Day Weather Forecast

Almanac

Astronomy

Aug. 28, 2016 Rise Set
Actual Time
Civil Twilight
Nautical Twilight
Astronomical Twilight
Moon
Length of Visible Light
Length of Day
Tomorrow will be .
, % of the Moon is Illuminated

Today's Extremes

State Highs State Lows

Community

WunderPhotos

Upload Photos

1,935,717 photos uploaded!

WunderBlog® & News

Nearby

Air Quality

  Air Quality AQ Index Pollutant
Not available.

Snow Depth

Station Depth Elevation

Earthquake Activity

City Distance Mag. Time & Date
Minimum magnitude displayed is 2.5.

Coastal Water Temperatures

Place Temperature

Stations

Nearby Weather Stations

Station Location Temp. Windchill Dew Point Humidity Wind Precip. Elev Updated Type
                   

Watches & Warnings

There are currently no watches in effect.